Reynosa, TAM, Mexico
Current Conditions -  °F | °C
As of 5:47 PM on Monday 20 Oct 2014 (Local Time) from MMRX Reporting Station
Broken Clouds Broken Clouds  
Wind Chill: 79°   Ceiling: 3500
Heat Index: 81°   Visibility: 8mi
Dew Point: 64°   Wind: 12mph
Humidity: 61%   Direction: 20°NNE
Pressure: 29.89"   Gusts: NA
Location:  26.08°N, 98.28°W
Report Text: MMRX 202247Z 02010KT 8SM BKN035TCU BKN080 26/18 A2989 RMK 8/230 HZY FU
Loading
Personal Weather Stations






























Interactive Weather Map
Tropical Storm Tracking
New forecast layout! Learn more

10-Day Weather Forecast

Advertisements
Track Severe Weather on mobile